sensor_id;sensor_type;location;lat;lon;timestamp;P1;durP1;ratioP1;P2;durP2;ratioP2
10031;SDS011;5056;44.272;19.892;2023-04-16T00:02:06;16.70;;;13.10;;
10031;SDS011;5056;44.272;19.892;2023-04-16T00:04:33;17.80;;;13.53;;
10031;SDS011;5056;44.272;19.892;2023-04-16T00:07:01;27.17;;;21.43;;
10031;SDS011;5056;44.272;19.892;2023-04-16T00:09:29;22.40;;;18.27;;
10031;SDS011;5056;44.272;19.892;2023-04-16T00:11:56;15.77;;;11.90;;
10031;SDS011;5056;44.272;19.892;2023-04-16T00:14:24;14.67;;;10.93;;
10031;SDS011;5056;44.272;19.892;2023-04-16T00:16:52;13.20;;;9.47;;
10031;SDS011;5056;44.272;19.892;2023-04-16T00:19:19;12.63;;;10.00;;
10031;SDS011;5056;44.272;19.892;2023-04-16T00:21:46;14.60;;;11.50;;
10031;SDS011;5056;44.272;19.892;2023-04-16T00:24:13;11.93;;;10.70;;
10031;SDS011;5056;44.272;19.892;2023-04-16T00:26:40;9.47;;;8.47;;
10031;SDS011;5056;44.272;19.892;2023-04-16T00:29:10;13.67;;;9.93;;
10031;SDS011;5056;44.272;19.892;2023-04-16T00:31:37;14.70;;;10.17;;
10031;SDS011;5056;44.272;19.892;2023-04-16T00:34:06;12.30;;;9.97;;
10031;SDS011;5056;44.272;19.892;2023-04-16T00:36:34;14.03;;;10.83;;
10031;SDS011;5056;44.272;19.892;2023-04-16T00:39:01;12.23;;;10.20;;
10031;SDS011;5056;44.272;19.892;2023-04-16T00:41:28;12.40;;;10.50;;
10031;SDS011;5056;44.272;19.892;2023-04-16T00:43:56;15.37;;;10.30;;
10031;SDS011;5056;44.272;19.892;2023-04-16T00:46:23;12.37;;;9.70;;
10031;SDS011;5056;44.272;19.892;2023-04-16T00:48:52;11.67;;;8.80;;
10031;SDS011;5056;44.272;19.892;2023-04-16T00:51:22;8.80;;;7.90;;
10031;SDS011;5056;44.272;19.892;2023-04-16T00:53:50;16.77;;;13.07;;
10031;SDS011;5056;44.272;19.892;2023-04-16T00:56:17;12.40;;;11.10;;
10031;SDS011;5056;44.272;19.892;2023-04-16T00:58:46;8.63;;;7.73;;
10031;SDS011;5056;44.272;19.892;2023-04-16T01:01:18;8.60;;;6.97;;
10031;SDS011;5056;44.272;19.892;2023-04-16T01:03:47;8.20;;;6.83;;
10031;SDS011;5056;44.272;19.892;2023-04-16T01:06:15;7.80;;;7.00;;
10031;SDS011;5056;44.272;19.892;2023-04-16T01:08:44;11.63;;;7.97;;
10031;SDS011;5056;44.272;19.892;2023-04-16T01:11:12;200.77;;;97.53;;
10031;SDS011;5056;44.272;19.892;2023-04-16T01:16:39;168.37;;;82.90;;
10031;SDS011;5056;44.272;19.892;2023-04-16T01:19:06;80.93;;;44.87;;
10031;SDS011;5056;44.272;19.892;2023-04-16T01:21:35;54.33;;;28.97;;
10031;SDS011;5056;44.272;19.892;2023-04-16T01:24:02;17.53;;;12.23;;
10031;SDS011;5056;44.272;19.892;2023-04-16T01:26:29;18.20;;;12.17;;
10031;SDS011;5056;44.272;19.892;2023-04-16T01:28:57;17.97;;;13.87;;
10031;SDS011;5056;44.272;19.892;2023-04-16T01:31:24;41.53;;;27.10;;
10031;SDS011;5056;44.272;19.892;2023-04-16T01:33:52;113.80;;;64.67;;
10031;SDS011;5056;44.272;19.892;2023-04-16T01:36:19;105.17;;;61.80;;
10031;SDS011;5056;44.272;19.892;2023-04-16T01:38:52;94.37;;;54.50;;
10031;SDS011;5056;44.272;19.892;2023-04-16T01:41:19;48.17;;;33.00;;
10031;SDS011;5056;44.272;19.892;2023-04-16T01:43:46;122.63;;;70.37;;
10031;SDS011;5056;44.272;19.892;2023-04-16T01:46:19;122.70;;;85.73;;
10031;SDS011;5056;44.272;19.892;2023-04-16T01:48:54;41.87;;;30.83;;
10031;SDS011;5056;44.272;19.892;2023-04-16T01:51:21;22.97;;;18.13;;
10031;SDS011;5056;44.272;19.892;2023-04-16T01:53:54;24.23;;;17.27;;
10031;SDS011;5056;44.272;19.892;2023-04-16T01:56:22;23.27;;;16.37;;
10031;SDS011;5056;44.272;19.892;2023-04-16T01:58:50;22.70;;;15.03;;
10031;SDS011;5056;44.272;19.892;2023-04-16T02:01:18;22.57;;;16.63;;
10031;SDS011;5056;44.272;19.892;2023-04-16T02:03:45;31.87;;;21.63;;
10031;SDS011;5056;44.272;19.892;2023-04-16T02:06:12;27.93;;;20.40;;
10031;SDS011;5056;44.272;19.892;2023-04-16T02:08:41;30.00;;;23.83;;
10031;SDS011;5056;44.272;19.892;2023-04-16T02:11:14;33.37;;;26.37;;
10031;SDS011;5056;44.272;19.892;2023-04-16T02:13:43;28.53;;;23.53;;
10031;SDS011;5056;44.272;19.892;2023-04-16T02:16:11;20.00;;;16.17;;
10031;SDS011;5056;44.272;19.892;2023-04-16T02:18:39;19.67;;;13.73;;
10031;SDS011;5056;44.272;19.892;2023-04-16T02:21:09;19.90;;;12.93;;
10031;SDS011;5056;44.272;19.892;2023-04-16T02:23:36;18.30;;;12.37;;
10031;SDS011;5056;44.272;19.892;2023-04-16T02:26:05;15.17;;;12.73;;
10031;SDS011;5056;44.272;19.892;2023-04-16T02:28:34;14.57;;;11.10;;
10031;SDS011;5056;44.272;19.892;2023-04-16T02:31:00;14.50;;;11.37;;
10031;SDS011;5056;44.272;19.892;2023-04-16T02:33:27;15.23;;;11.40;;
10031;SDS011;5056;44.272;19.892;2023-04-16T02:35:56;13.10;;;10.87;;
10031;SDS011;5056;44.272;19.892;2023-04-16T02:38:23;11.73;;;9.77;;
10031;SDS011;5056;44.272;19.892;2023-04-16T02:40:50;11.37;;;9.13;;
10031;SDS011;5056;44.272;19.892;2023-04-16T02:43:17;9.67;;;8.20;;
10031;SDS011;5056;44.272;19.892;2023-04-16T02:45:48;11.73;;;8.27;;
10031;SDS011;5056;44.272;19.892;2023-04-16T02:48:15;9.37;;;8.47;;
10031;SDS011;5056;44.272;19.892;2023-04-16T02:50:42;9.87;;;7.93;;
10031;SDS011;5056;44.272;19.892;2023-04-16T02:53:10;10.10;;;8.93;;
10031;SDS011;5056;44.272;19.892;2023-04-16T02:55:38;11.30;;;9.73;;
10031;SDS011;5056;44.272;19.892;2023-04-16T02:58:06;12.70;;;9.63;;
10031;SDS011;5056;44.272;19.892;2023-04-16T03:00:33;12.87;;;10.60;;
10031;SDS011;5056;44.272;19.892;2023-04-16T03:03:02;17.63;;;12.23;;
10031;SDS011;5056;44.272;19.892;2023-04-16T03:05:29;22.87;;;18.03;;
10031;SDS011;5056;44.272;19.892;2023-04-16T03:07:59;26.17;;;19.07;;
10031;SDS011;5056;44.272;19.892;2023-04-16T03:13:18;20.13;;;16.90;;
10031;SDS011;5056;44.272;19.892;2023-04-16T03:15:47;13.23;;;10.97;;
10031;SDS011;5056;44.272;19.892;2023-04-16T03:18:17;13.10;;;9.80;;
10031;SDS011;5056;44.272;19.892;2023-04-16T03:20:44;13.33;;;9.80;;
10031;SDS011;5056;44.272;19.892;2023-04-16T03:23:10;11.80;;;9.27;;
10031;SDS011;5056;44.272;19.892;2023-04-16T03:29:09;10.20;;;8.40;;
10031;SDS011;5056;44.272;19.892;2023-04-16T03:31:40;8.83;;;7.93;;
10031;SDS011;5056;44.272;19.892;2023-04-16T03:34:08;9.10;;;7.50;;
10031;SDS011;5056;44.272;19.892;2023-04-16T03:36:35;7.60;;;6.77;;
10031;SDS011;5056;44.272;19.892;2023-04-16T03:39:03;8.50;;;7.57;;
10031;SDS011;5056;44.272;19.892;2023-04-16T03:41:33;7.37;;;6.63;;
10031;SDS011;5056;44.272;19.892;2023-04-16T03:44:02;9.37;;;7.00;;
10031;SDS011;5056;44.272;19.892;2023-04-16T03:46:30;9.20;;;7.17;;
10031;SDS011;5056;44.272;19.892;2023-04-16T03:48:57;8.53;;;7.03;;
10031;SDS011;5056;44.272;19.892;2023-04-16T03:51:27;12.43;;;7.80;;
10031;SDS011;5056;44.272;19.892;2023-04-16T03:53:58;8.43;;;7.37;;
10031;SDS011;5056;44.272;19.892;2023-04-16T03:56:26;11.03;;;8.60;;
10031;SDS011;5056;44.272;19.892;2023-04-16T03:58:55;15.70;;;9.57;;
10031;SDS011;5056;44.272;19.892;2023-04-16T04:01:22;21.20;;;14.00;;
10031;SDS011;5056;44.272;19.892;2023-04-16T04:03:49;16.50;;;12.00;;
10031;SDS011;5056;44.272;19.892;2023-04-16T04:06:17;12.37;;;10.00;;
10031;SDS011;5056;44.272;19.892;2023-04-16T04:08:45;11.97;;;9.80;;
10031;SDS011;5056;44.272;19.892;2023-04-16T04:11:24;9.70;;;8.70;;
10031;SDS011;5056;44.272;19.892;2023-04-16T04:13:51;13.70;;;10.53;;
10031;SDS011;5056;44.272;19.892;2023-04-16T04:16:19;12.90;;;10.03;;
10031;SDS011;5056;44.272;19.892;2023-04-16T04:18:46;10.23;;;9.07;;
10031;SDS011;5056;44.272;19.892;2023-04-16T04:21:17;11.23;;;9.60;;
10031;SDS011;5056;44.272;19.892;2023-04-16T04:23:44;9.97;;;8.73;;
10031;SDS011;5056;44.272;19.892;2023-04-16T04:26:12;11.83;;;8.80;;
10031;SDS011;5056;44.272;19.892;2023-04-16T04:28:40;13.83;;;11.40;;
10031;SDS011;5056;44.272;19.892;2023-04-16T04:31:08;17.77;;;13.87;;
10031;SDS011;5056;44.272;19.892;2023-04-16T04:33:37;16.53;;;12.83;;
10031;SDS011;5056;44.272;19.892;2023-04-16T04:36:06;15.03;;;12.37;;
10031;SDS011;5056;44.272;19.892;2023-04-16T04:38:33;15.13;;;11.27;;
10031;SDS011;5056;44.272;19.892;2023-04-16T04:41:03;21.90;;;15.83;;
10031;SDS011;5056;44.272;19.892;2023-04-16T04:43:30;22.67;;;18.50;;
10031;SDS011;5056;44.272;19.892;2023-04-16T04:45:58;22.27;;;19.47;;
10031;SDS011;5056;44.272;19.892;2023-04-16T04:48:26;21.23;;;18.40;;
10031;SDS011;5056;44.272;19.892;2023-04-16T04:50:55;21.40;;;16.90;;
10031;SDS011;5056;44.272;19.892;2023-04-16T04:53:22;14.07;;;11.33;;
10031;SDS011;5056;44.272;19.892;2023-04-16T04:55:50;11.63;;;10.43;;
10031;SDS011;5056;44.272;19.892;2023-04-16T04:58:20;11.10;;;9.00;;
10031;SDS011;5056;44.272;19.892;2023-04-16T05:00:47;9.53;;;8.47;;
10031;SDS011;5056;44.272;19.892;2023-04-16T05:03:18;9.63;;;8.63;;
10031;SDS011;5056;44.272;19.892;2023-04-16T05:05:46;8.30;;;7.50;;
10031;SDS011;5056;44.272;19.892;2023-04-16T05:08:13;10.57;;;9.00;;
10031;SDS011;5056;44.272;19.892;2023-04-16T05:10:40;12.80;;;10.13;;
10031;SDS011;5056;44.272;19.892;2023-04-16T05:13:10;13.93;;;12.27;;
10031;SDS011;5056;44.272;19.892;2023-04-16T05:15:39;16.53;;;13.17;;
10031;SDS011;5056;44.272;19.892;2023-04-16T05:18:06;19.97;;;15.17;;
10031;SDS011;5056;44.272;19.892;2023-04-16T05:20:36;18.07;;;14.03;;
10031;SDS011;5056;44.272;19.892;2023-04-16T05:23:04;18.33;;;13.87;;
10031;SDS011;5056;44.272;19.892;2023-04-16T05:25:31;15.97;;;13.90;;
10031;SDS011;5056;44.272;19.892;2023-04-16T05:27:58;14.07;;;11.77;;
10031;SDS011;5056;44.272;19.892;2023-04-16T05:30:26;16.10;;;13.43;;
10031;SDS011;5056;44.272;19.892;2023-04-16T05:32:54;15.30;;;12.53;;
10031;SDS011;5056;44.272;19.892;2023-04-16T05:35:23;14.20;;;12.70;;
10031;SDS011;5056;44.272;19.892;2023-04-16T05:37:50;16.37;;;12.73;;
10031;SDS011;5056;44.272;19.892;2023-04-16T05:40:17;18.13;;;13.77;;
10031;SDS011;5056;44.272;19.892;2023-04-16T05:42:44;19.03;;;12.73;;
10031;SDS011;5056;44.272;19.892;2023-04-16T05:45:11;17.50;;;13.67;;
10031;SDS011;5056;44.272;19.892;2023-04-16T05:47:39;16.93;;;13.87;;
10031;SDS011;5056;44.272;19.892;2023-04-16T05:50:10;17.27;;;13.67;;
10031;SDS011;5056;44.272;19.892;2023-04-16T05:52:37;16.33;;;14.00;;
10031;SDS011;5056;44.272;19.892;2023-04-16T05:55:04;18.40;;;15.47;;
10031;SDS011;5056;44.272;19.892;2023-04-16T05:57:31;20.03;;;15.83;;
10031;SDS011;5056;44.272;19.892;2023-04-16T05:59:59;20.70;;;17.43;;
10031;SDS011;5056;44.272;19.892;2023-04-16T06:02:26;23.23;;;18.73;;
10031;SDS011;5056;44.272;19.892;2023-04-16T06:04:54;23.40;;;18.67;;
10031;SDS011;5056;44.272;19.892;2023-04-16T06:07:23;24.47;;;19.40;;
10031;SDS011;5056;44.272;19.892;2023-04-16T06:09:50;25.63;;;20.37;;
10031;SDS011;5056;44.272;19.892;2023-04-16T06:12:17;25.50;;;20.97;;
10031;SDS011;5056;44.272;19.892;2023-04-16T06:14:44;30.77;;;24.77;;
10031;SDS011;5056;44.272;19.892;2023-04-16T06:17:12;33.30;;;24.10;;
10031;SDS011;5056;44.272;19.892;2023-04-16T06:19:39;24.03;;;19.47;;
10031;SDS011;5056;44.272;19.892;2023-04-16T06:22:06;22.50;;;18.83;;
10031;SDS011;5056;44.272;19.892;2023-04-16T06:24:35;24.40;;;19.67;;
10031;SDS011;5056;44.272;19.892;2023-04-16T06:27:03;21.70;;;18.47;;
10031;SDS011;5056;44.272;19.892;2023-04-16T06:29:32;26.23;;;22.87;;
10031;SDS011;5056;44.272;19.892;2023-04-16T06:31:59;27.23;;;20.40;;
10031;SDS011;5056;44.272;19.892;2023-04-16T06:34:28;26.63;;;22.20;;
10031;SDS011;5056;44.272;19.892;2023-04-16T06:36:56;23.53;;;19.80;;
10031;SDS011;5056;44.272;19.892;2023-04-16T06:39:23;23.23;;;20.03;;
10031;SDS011;5056;44.272;19.892;2023-04-16T06:41:55;23.73;;;18.63;;
10031;SDS011;5056;44.272;19.892;2023-04-16T06:44:22;22.03;;;18.23;;
10031;SDS011;5056;44.272;19.892;2023-04-16T06:46:50;23.40;;;19.07;;
10031;SDS011;5056;44.272;19.892;2023-04-16T06:49:18;23.13;;;18.03;;
10031;SDS011;5056;44.272;19.892;2023-04-16T06:51:45;22.77;;;19.27;;
10031;SDS011;5056;44.272;19.892;2023-04-16T06:54:13;25.90;;;21.93;;
10031;SDS011;5056;44.272;19.892;2023-04-16T06:56:40;34.87;;;29.47;;
10031;SDS011;5056;44.272;19.892;2023-04-16T06:59:12;27.50;;;24.33;;
10031;SDS011;5056;44.272;19.892;2023-04-16T07:01:40;29.33;;;23.80;;
10031;SDS011;5056;44.272;19.892;2023-04-16T07:04:07;24.30;;;20.27;;
10031;SDS011;5056;44.272;19.892;2023-04-16T07:06:35;23.90;;;20.10;;
10031;SDS011;5056;44.272;19.892;2023-04-16T07:09:02;23.50;;;19.67;;
10031;SDS011;5056;44.272;19.892;2023-04-16T07:11:31;20.92;;;18.40;;
10031;SDS011;5056;44.272;19.892;2023-04-16T07:13:58;22.10;;;19.17;;
10031;SDS011;5056;44.272;19.892;2023-04-16T07:16:27;20.67;;;18.38;;
10031;SDS011;5056;44.272;19.892;2023-04-16T07:18:54;23.33;;;19.02;;
10031;SDS011;5056;44.272;19.892;2023-04-16T07:21:21;19.75;;;17.02;;
10031;SDS011;5056;44.272;19.892;2023-04-16T07:23:54;22.08;;;18.67;;
10031;SDS011;5056;44.272;19.892;2023-04-16T07:26:25;16.40;;;14.45;;
10031;SDS011;5056;44.272;19.892;2023-04-16T07:28:52;17.50;;;15.10;;
10031;SDS011;5056;44.272;19.892;2023-04-16T07:31:19;14.18;;;12.68;;
10031;SDS011;5056;44.272;19.892;2023-04-16T07:33:47;14.50;;;11.77;;
10031;SDS011;5056;44.272;19.892;2023-04-16T07:36:15;12.02;;;10.82;;
10031;SDS011;5056;44.272;19.892;2023-04-16T07:38:42;14.05;;;12.48;;
10031;SDS011;5056;44.272;19.892;2023-04-16T07:41:09;13.95;;;12.50;;
10031;SDS011;5056;44.272;19.892;2023-04-16T07:43:36;19.30;;;12.70;;
10031;SDS011;5056;44.272;19.892;2023-04-16T07:46:03;20.58;;;13.63;;
10031;SDS011;5056;44.272;19.892;2023-04-16T07:48:30;14.40;;;13.00;;
10031;SDS011;5056;44.272;19.892;2023-04-16T07:51:04;16.23;;;14.30;;
10031;SDS011;5056;44.272;19.892;2023-04-16T07:53:32;15.55;;;13.95;;
10031;SDS011;5056;44.272;19.892;2023-04-16T07:55:58;18.23;;;14.20;;
10031;SDS011;5056;44.272;19.892;2023-04-16T07:58:25;14.45;;;13.05;;
10031;SDS011;5056;44.272;19.892;2023-04-16T08:01:06;15.45;;;13.90;;
10031;SDS011;5056;44.272;19.892;2023-04-16T08:03:38;14.68;;;13.25;;
10031;SDS011;5056;44.272;19.892;2023-04-16T08:06:06;13.50;;;12.20;;
10031;SDS011;5056;44.272;19.892;2023-04-16T08:08:33;13.65;;;12.32;;
10031;SDS011;5056;44.272;19.892;2023-04-16T08:11:00;15.50;;;13.98;;
10031;SDS011;5056;44.272;19.892;2023-04-16T08:13:28;14.02;;;12.73;;
10031;SDS011;5056;44.272;19.892;2023-04-16T08:15:56;15.90;;;14.30;;
10031;SDS011;5056;44.272;19.892;2023-04-16T08:18:23;17.25;;;15.65;;
10031;SDS011;5056;44.272;19.892;2023-04-16T08:20:50;17.45;;;15.82;;
10031;SDS011;5056;44.272;19.892;2023-04-16T08:23:23;14.85;;;13.48;;
10031;SDS011;5056;44.272;19.892;2023-04-16T08:25:51;14.77;;;13.38;;
10031;SDS011;5056;44.272;19.892;2023-04-16T08:28:18;19.45;;;17.27;;
10031;SDS011;5056;44.272;19.892;2023-04-16T08:30:45;14.45;;;13.05;;
10031;SDS011;5056;44.272;19.892;2023-04-16T08:33:14;11.68;;;10.57;;
10031;SDS011;5056;44.272;19.892;2023-04-16T08:35:40;11.45;;;10.32;;
10031;SDS011;5056;44.272;19.892;2023-04-16T08:38:08;13.30;;;12.00;;
10031;SDS011;5056;44.272;19.892;2023-04-16T08:40:37;11.95;;;10.82;;
10031;SDS011;5056;44.272;19.892;2023-04-16T08:43:05;15.02;;;13.73;;
10031;SDS011;5056;44.272;19.892;2023-04-16T08:45:36;16.88;;;15.18;;
10031;SDS011;5056;44.272;19.892;2023-04-16T08:48:04;16.80;;;15.10;;
10031;SDS011;5056;44.272;19.892;2023-04-16T08:50:31;14.20;;;12.90;;
10031;SDS011;5056;44.272;19.892;2023-04-16T08:53:02;13.35;;;11.95;;
10031;SDS011;5056;44.272;19.892;2023-04-16T08:55:31;14.73;;;12.65;;
10031;SDS011;5056;44.272;19.892;2023-04-16T08:58:05;12.38;;;11.18;;
10031;SDS011;5056;44.272;19.892;2023-04-16T09:00:34;14.82;;;13.32;;
10031;SDS011;5056;44.272;19.892;2023-04-16T09:03:04;11.98;;;10.77;;
10031;SDS011;5056;44.272;19.892;2023-04-16T09:05:31;8.98;;;8.07;;
10031;SDS011;5056;44.272;19.892;2023-04-16T09:07:58;8.27;;;7.50;;
10031;SDS011;5056;44.272;19.892;2023-04-16T09:10:26;9.10;;;5.28;;
10031;SDS011;5056;44.272;19.892;2023-04-16T09:12:55;6.20;;;5.60;;
10031;SDS011;5056;44.272;19.892;2023-04-16T09:15:22;6.55;;;5.57;;
10031;SDS011;5056;44.272;19.892;2023-04-16T09:17:53;7.85;;;4.18;;
10031;SDS011;5056;44.272;19.892;2023-04-16T09:20:21;4.80;;;4.05;;
10031;SDS011;5056;44.272;19.892;2023-04-16T09:22:49;3.42;;;3.13;;
10031;SDS011;5056;44.272;19.892;2023-04-16T09:25:15;4.50;;;4.13;;
10031;SDS011;5056;44.272;19.892;2023-04-16T09:27:42;4.82;;;4.40;;
10031;SDS011;5056;44.272;19.892;2023-04-16T09:30:20;5.13;;;4.55;;
10031;SDS011;5056;44.272;19.892;2023-04-16T09:32:48;4.68;;;4.20;;
10031;SDS011;5056;44.272;19.892;2023-04-16T09:35:16;4.68;;;3.88;;
10031;SDS011;5056;44.272;19.892;2023-04-16T09:37:46;7.80;;;5.07;;
10031;SDS011;5056;44.272;19.892;2023-04-16T09:40:22;6.18;;;4.45;;
10031;SDS011;5056;44.272;19.892;2023-04-16T09:42:50;5.10;;;4.47;;
10031;SDS011;5056;44.272;19.892;2023-04-16T09:45:18;6.43;;;5.78;;
10031;SDS011;5056;44.272;19.892;2023-04-16T09:47:52;5.22;;;4.72;;
10031;SDS011;5056;44.272;19.892;2023-04-16T09:50:28;6.05;;;5.53;;
10031;SDS011;5056;44.272;19.892;2023-04-16T09:52:55;5.25;;;4.43;;
10031;SDS011;5056;44.272;19.892;2023-04-16T09:55:22;4.28;;;3.88;;
10031;SDS011;5056;44.272;19.892;2023-04-16T09:57:49;4.32;;;4.03;;
10031;SDS011;5056;44.272;19.892;2023-04-16T10:00:38;4.28;;;3.65;;
10031;SDS011;5056;44.272;19.892;2023-04-16T10:03:06;4.93;;;3.92;;
10031;SDS011;5056;44.272;19.892;2023-04-16T10:05:33;7.05;;;4.15;;
10031;SDS011;5056;44.272;19.892;2023-04-16T10:08:00;4.28;;;3.88;;
10031;SDS011;5056;44.272;19.892;2023-04-16T10:10:27;4.18;;;3.83;;
10031;SDS011;5056;44.272;19.892;2023-04-16T10:12:55;3.60;;;3.30;;
10031;SDS011;5056;44.272;19.892;2023-04-16T10:15:23;4.57;;;3.50;;
10031;SDS011;5056;44.272;19.892;2023-04-16T10:17:52;3.42;;;2.92;;
10031;SDS011;5056;44.272;19.892;2023-04-16T10:20:19;4.22;;;3.60;;
10031;SDS011;5056;44.272;19.892;2023-04-16T10:22:48;3.78;;;3.38;;
10031;SDS011;5056;44.272;19.892;2023-04-16T10:25:15;3.35;;;3.10;;
10031;SDS011;5056;44.272;19.892;2023-04-16T10:27:43;3.22;;;2.90;;
10031;SDS011;5056;44.272;19.892;2023-04-16T10:30:10;3.80;;;3.40;;
10031;SDS011;5056;44.272;19.892;2023-04-16T10:32:41;2.72;;;2.53;;
10031;SDS011;5056;44.272;19.892;2023-04-16T10:35:16;3.05;;;2.85;;
10031;SDS011;5056;44.272;19.892;2023-04-16T10:37:45;3.67;;;2.60;;
10031;SDS011;5056;44.272;19.892;2023-04-16T10:40:22;2.58;;;2.38;;
10031;SDS011;5056;44.272;19.892;2023-04-16T10:43:00;4.75;;;4.35;;
10031;SDS011;5056;44.272;19.892;2023-04-16T10:45:30;4.72;;;3.90;;
10031;SDS011;5056;44.272;19.892;2023-04-16T10:47:57;6.50;;;4.88;;
10031;SDS011;5056;44.272;19.892;2023-04-16T10:50:33;3.90;;;3.50;;
10031;SDS011;5056;44.272;19.892;2023-04-16T10:53:17;3.63;;;3.33;;
10031;SDS011;5056;44.272;19.892;2023-04-16T10:55:58;3.33;;;3.00;;
10031;SDS011;5056;44.272;19.892;2023-04-16T10:58:36;3.78;;;3.30;;
10031;SDS011;5056;44.272;19.892;2023-04-16T11:01:05;6.07;;;4.65;;
10031;SDS011;5056;44.272;19.892;2023-04-16T11:03:33;5.47;;;4.00;;
10031;SDS011;5056;44.272;19.892;2023-04-16T11:06:11;3.72;;;3.30;;
10031;SDS011;5056;44.272;19.892;2023-04-16T11:08:40;5.05;;;3.20;;
10031;SDS011;5056;44.272;19.892;2023-04-16T11:11:09;3.55;;;3.25;;
10031;SDS011;5056;44.272;19.892;2023-04-16T11:13:36;3.33;;;3.10;;
10031;SDS011;5056;44.272;19.892;2023-04-16T11:16:03;4.22;;;3.53;;
10031;SDS011;5056;44.272;19.892;2023-04-16T11:18:30;3.40;;;3.20;;
10031;SDS011;5056;44.272;19.892;2023-04-16T11:20:58;3.60;;;3.30;;
10031;SDS011;5056;44.272;19.892;2023-04-16T11:23:27;5.95;;;5.35;;
10031;SDS011;5056;44.272;19.892;2023-04-16T11:25:54;4.35;;;4.00;;
10031;SDS011;5056;44.272;19.892;2023-04-16T11:28:32;4.70;;;4.30;;
10031;SDS011;5056;44.272;19.892;2023-04-16T11:31:08;5.85;;;3.95;;
10031;SDS011;5056;44.272;19.892;2023-04-16T11:33:36;5.05;;;4.30;;
10031;SDS011;5056;44.272;19.892;2023-04-16T11:36:04;5.50;;;4.70;;
10031;SDS011;5056;44.272;19.892;2023-04-16T11:38:34;4.85;;;4.43;;
10031;SDS011;5056;44.272;19.892;2023-04-16T11:41:02;4.82;;;4.43;;
10031;SDS011;5056;44.272;19.892;2023-04-16T11:43:33;4.20;;;3.83;;
10031;SDS011;5056;44.272;19.892;2023-04-16T11:46:01;4.97;;;4.47;;
10031;SDS011;5056;44.272;19.892;2023-04-16T11:48:49;6.70;;;5.57;;
10031;SDS011;5056;44.272;19.892;2023-04-16T11:51:17;11.80;;;9.82;;
10031;SDS011;5056;44.272;19.892;2023-04-16T11:53:47;5.63;;;5.13;;
10031;SDS011;5056;44.272;19.892;2023-04-16T12:01:49;7.70;;;6.90;;
10031;SDS011;5056;44.272;19.892;2023-04-16T12:04:18;4.85;;;4.45;;
10031;SDS011;5056;44.272;19.892;2023-04-16T12:07:06;5.07;;;4.57;;
10031;SDS011;5056;44.272;19.892;2023-04-16T12:09:36;5.55;;;4.70;;
10031;SDS011;5056;44.272;19.892;2023-04-16T12:12:05;5.20;;;4.32;;
10031;SDS011;5056;44.272;19.892;2023-04-16T12:14:32;4.28;;;3.80;;
10031;SDS011;5056;44.272;19.892;2023-04-16T12:19:49;4.70;;;4.30;;
10031;SDS011;5056;44.272;19.892;2023-04-16T12:22:18;4.18;;;3.85;;
10031;SDS011;5056;44.272;19.892;2023-04-16T12:24:56;5.35;;;4.55;;
10031;SDS011;5056;44.272;19.892;2023-04-16T12:27:24;6.50;;;4.95;;
10031;SDS011;5056;44.272;19.892;2023-04-16T12:30:02;4.47;;;4.07;;
10031;SDS011;5056;44.272;19.892;2023-04-16T12:32:31;4.22;;;3.85;;
10031;SDS011;5056;44.272;19.892;2023-04-16T12:34:59;4.53;;;4.00;;
10031;SDS011;5056;44.272;19.892;2023-04-16T12:37:26;7.45;;;4.57;;
10031;SDS011;5056;44.272;19.892;2023-04-16T12:40:00;5.32;;;3.88;;
10031;SDS011;5056;44.272;19.892;2023-04-16T12:42:30;7.43;;;4.68;;
10031;SDS011;5056;44.272;19.892;2023-04-16T12:45:00;7.13;;;4.90;;
10031;SDS011;5056;44.272;19.892;2023-04-16T12:47:28;5.55;;;4.97;;
10031;SDS011;5056;44.272;19.892;2023-04-16T12:49:55;6.20;;;4.78;;
10031;SDS011;5056;44.272;19.892;2023-04-16T12:52:22;5.30;;;4.75;;
10031;SDS011;5056;44.272;19.892;2023-04-16T12:54:51;5.75;;;5.25;;
10031;SDS011;5056;44.272;19.892;2023-04-16T12:57:21;5.00;;;4.60;;
10031;SDS011;5056;44.272;19.892;2023-04-16T12:59:52;6.03;;;4.68;;
10031;SDS011;5056;44.272;19.892;2023-04-16T13:02:22;4.82;;;4.43;;
10031;SDS011;5056;44.272;19.892;2023-04-16T13:04:50;6.15;;;5.60;;
10031;SDS011;5056;44.272;19.892;2023-04-16T13:07:17;5.25;;;4.75;;
10031;SDS011;5056;44.272;19.892;2023-04-16T13:09:45;5.70;;;5.20;;
10031;SDS011;5056;44.272;19.892;2023-04-16T13:12:12;5.07;;;4.68;;
10031;SDS011;5056;44.272;19.892;2023-04-16T13:14:41;5.32;;;4.82;;
10031;SDS011;5056;44.272;19.892;2023-04-16T13:17:11;5.40;;;4.88;;
10031;SDS011;5056;44.272;19.892;2023-04-16T13:19:39;5.57;;;5.07;;
10031;SDS011;5056;44.272;19.892;2023-04-16T13:22:07;8.93;;;6.55;;
10031;SDS011;5056;44.272;19.892;2023-04-16T13:24:35;6.57;;;5.97;;
10031;SDS011;5056;44.272;19.892;2023-04-16T13:27:03;6.60;;;5.63;;
10031;SDS011;5056;44.272;19.892;2023-04-16T13:29:30;6.60;;;5.93;;
10031;SDS011;5056;44.272;19.892;2023-04-16T13:32:02;5.68;;;5.18;;
10031;SDS011;5056;44.272;19.892;2023-04-16T13:34:31;6.28;;;5.45;;
10031;SDS011;5056;44.272;19.892;2023-04-16T13:36:58;6.10;;;5.55;;
10031;SDS011;5056;44.272;19.892;2023-04-16T13:39:25;8.40;;;6.30;;
10031;SDS011;5056;44.272;19.892;2023-04-16T13:41:53;6.57;;;5.97;;
10031;SDS011;5056;44.272;19.892;2023-04-16T13:44:20;5.50;;;4.97;;
10031;SDS011;5056;44.272;19.892;2023-04-16T13:46:48;10.48;;;6.35;;
10031;SDS011;5056;44.272;19.892;2023-04-16T13:49:19;9.25;;;6.63;;
10031;SDS011;5056;44.272;19.892;2023-04-16T13:51:46;6.47;;;5.72;;
10031;SDS011;5056;44.272;19.892;2023-04-16T13:54:15;6.93;;;6.22;;
10031;SDS011;5056;44.272;19.892;2023-04-16T13:56:43;10.73;;;6.78;;
10031;SDS011;5056;44.272;19.892;2023-04-16T13:59:10;8.35;;;7.55;;
10031;SDS011;5056;44.272;19.892;2023-04-16T14:01:40;9.50;;;8.55;;
10031;SDS011;5056;44.272;19.892;2023-04-16T14:04:07;9.77;;;7.88;;
10031;SDS011;5056;44.272;19.892;2023-04-16T14:06:35;10.38;;;9.38;;
10031;SDS011;5056;44.272;19.892;2023-04-16T14:09:02;8.20;;;7.40;;
10031;SDS011;5056;44.272;19.892;2023-04-16T14:11:30;8.98;;;8.02;;
10031;SDS011;5056;44.272;19.892;2023-04-16T14:13:57;10.10;;;9.10;;
10031;SDS011;5056;44.272;19.892;2023-04-16T14:16:25;10.32;;;8.77;;
10031;SDS011;5056;44.272;19.892;2023-04-16T14:18:52;9.02;;;8.13;;
10031;SDS011;5056;44.272;19.892;2023-04-16T14:21:19;10.40;;;9.00;;
10031;SDS011;5056;44.272;19.892;2023-04-16T14:23:48;8.45;;;7.72;;
10031;SDS011;5056;44.272;19.892;2023-04-16T14:26:15;9.07;;;8.27;;
10031;SDS011;5056;44.272;19.892;2023-04-16T14:28:43;9.75;;;8.38;;
10031;SDS011;5056;44.272;19.892;2023-04-16T14:31:10;9.38;;;8.57;;
10031;SDS011;5056;44.272;19.892;2023-04-16T14:33:37;10.23;;;9.23;;
10031;SDS011;5056;44.272;19.892;2023-04-16T14:36:06;13.27;;;11.95;;
10031;SDS011;5056;44.272;19.892;2023-04-16T14:38:33;17.38;;;14.95;;
10031;SDS011;5056;44.272;19.892;2023-04-16T14:41:02;17.50;;;15.65;;
10031;SDS011;5056;44.272;19.892;2023-04-16T14:43:29;18.92;;;15.65;;
10031;SDS011;5056;44.272;19.892;2023-04-16T14:45:56;16.17;;;13.63;;
10031;SDS011;5056;44.272;19.892;2023-04-16T14:48:24;17.48;;;13.88;;
10031;SDS011;5056;44.272;19.892;2023-04-16T14:50:51;16.85;;;13.02;;
10031;SDS011;5056;44.272;19.892;2023-04-16T14:53:21;16.63;;;12.30;;
10031;SDS011;5056;44.272;19.892;2023-04-16T14:55:48;13.10;;;10.43;;
10031;SDS011;5056;44.272;19.892;2023-04-16T14:58:19;12.77;;;10.27;;
10031;SDS011;5056;44.272;19.892;2023-04-16T15:00:49;8.75;;;7.85;;